createdAt,value
2023-02-02T00:01:30.212Z,91.00
2023-02-02T00:03:58.654Z,90.90
2023-02-02T00:06:29.581Z,91.00
2023-02-02T00:08:58.604Z,91.10
2023-02-02T00:11:26.970Z,91.20
2023-02-02T00:13:56.309Z,91.10
2023-02-02T00:16:41.836Z,90.90
2023-02-02T00:19:11.763Z,91.10
2023-02-02T00:21:39.651Z,90.90
2023-02-02T00:24:08.653Z,91.00
2023-02-02T00:26:37.368Z,91.30
2023-02-02T00:29:07.722Z,91.30
2023-02-02T00:31:35.742Z,91.10
2023-02-02T00:34:03.641Z,91.00
2023-02-02T13:10:39.598Z,92.40
2023-02-02T13:13:12.517Z,92.30
2023-02-02T13:15:43.350Z,92.60
2023-02-02T13:18:16.293Z,92.50
2023-02-02T13:20:47.430Z,91.40
2023-02-02T13:23:21.255Z,91.60
2023-02-02T13:25:54.304Z,91.70
2023-02-02T13:28:36.645Z,91.60
2023-02-02T13:31:12.504Z,91.60
2023-02-02T13:33:42.763Z,91.80
2023-02-02T13:36:19.304Z,91.70
2023-02-02T13:38:47.477Z,91.80
2023-02-02T13:41:18.469Z,91.90
2023-02-02T13:43:53.567Z,91.90
2023-02-02T13:46:30.501Z,92.00
2023-02-02T13:49:06.577Z,92.00
2023-02-02T13:51:54.631Z,92.00
2023-02-02T13:55:00.092Z,92.10
2023-02-02T13:57:52.930Z,92.20
2023-02-02T14:00:24.303Z,92.20
2023-02-02T14:02:55.340Z,92.20
2023-02-02T14:05:27.024Z,92.30
2023-02-02T14:08:03.122Z,92.40
2023-02-02T14:10:35.811Z,92.60
2023-02-02T14:13:34.833Z,92.60
2023-02-02T14:16:06.438Z,92.70
2023-02-02T14:18:56.710Z,92.60
2023-02-02T14:22:17.501Z,92.70
2023-02-02T14:24:47.738Z,92.70
2023-02-02T14:27:56.509Z,92.50
2023-02-02T14:30:34.543Z,92.40
2023-02-02T14:33:25.810Z,92.30
2023-02-02T14:36:02.215Z,92.30
2023-02-02T14:39:07.356Z,92.20
2023-02-02T14:42:02.700Z,92.20
2023-02-02T14:44:31.306Z,92.20
2023-02-02T14:47:00.672Z,92.20
2023-02-02T14:49:36.338Z,92.30
2023-02-02T14:52:05.374Z,92.30
2023-02-02T14:54:37.198Z,92.30
2023-02-02T14:57:22.754Z,92.40
2023-02-02T14:59:52.871Z,92.40
2023-02-02T15:02:25.784Z,92.50
2023-02-02T15:05:13.653Z,92.60
2023-02-02T15:07:54.144Z,93.10
2023-02-02T15:11:00.039Z,92.90
2023-02-02T15:13:37.319Z,92.90
2023-02-02T15:16:10.892Z,92.80
2023-02-02T15:18:46.174Z,92.70
2023-02-02T15:21:22.006Z,92.70
2023-02-02T15:23:50.403Z,92.70
2023-02-02T15:26:22.461Z,92.70
2023-02-02T15:28:55.449Z,92.90
2023-02-02T15:31:29.561Z,92.90
2023-02-02T15:34:02.104Z,92.80
2023-02-02T15:36:33.014Z,92.70
2023-02-02T15:39:04.262Z,92.70
2023-02-02T15:41:34.585Z,92.70
2023-02-02T15:44:02.740Z,92.80
2023-02-02T15:46:35.848Z,93.20
2023-02-02T15:49:34.202Z,93.40
2023-02-02T15:52:11.883Z,93.70
2023-02-02T15:54:39.770Z,93.50
2023-02-02T15:57:31.765Z,93.40
2023-02-02T16:00:00.750Z,93.60
2023-02-02T16:02:37.578Z,93.60
2023-02-02T16:05:39.246Z,93.60
2023-02-02T16:08:10.189Z,93.50
2023-02-02T16:10:38.187Z,93.50
2023-02-02T16:13:06.116Z,93.70
2023-02-02T16:15:34.029Z,93.40
2023-02-02T16:18:03.778Z,93.70
2023-02-02T16:20:35.577Z,93.70
2023-02-02T16:23:06.837Z,93.70
2023-02-02T16:25:38.730Z,93.60
2023-02-02T16:28:06.965Z,93.70
2023-02-02T16:30:38.451Z,93.90
2023-02-02T16:33:27.459Z,93.80
2023-02-02T16:35:57.040Z,93.90
2023-02-02T16:38:27.462Z,93.90
2023-02-02T16:41:09.120Z,93.90
2023-02-02T16:43:38.984Z,94.00
2023-02-02T16:46:10.440Z,93.80
2023-02-02T16:48:40.301Z,94.00
2023-02-02T16:51:27.945Z,94.00
2023-02-02T16:54:02.895Z,94.20
2023-02-02T16:56:33.753Z,94.00
2023-02-02T16:59:06.639Z,94.00
2023-02-02T17:01:39.424Z,94.10
2023-02-02T17:04:15.730Z,94.20
2023-02-02T17:06:52.419Z,94.10
2023-02-02T17:09:37.307Z,94.20
2023-02-02T17:12:14.245Z,94.10
2023-02-02T17:14:53.105Z,94.10
2023-02-02T17:17:21.454Z,93.90
2023-02-02T17:19:49.494Z,94.00
2023-02-02T17:22:21.127Z,93.80
2023-02-02T17:24:51.172Z,93.80
2023-02-02T17:27:28.696Z,93.80
2023-02-02T17:29:57.713Z,93.80
2023-02-02T17:32:26.859Z,93.80
2023-02-02T17:34:54.775Z,93.90
2023-02-02T17:37:24.001Z,93.80
2023-02-02T17:39:51.917Z,93.80
2023-02-02T17:42:25.448Z,93.70
2023-02-02T17:44:53.387Z,93.90
2023-02-02T17:47:21.326Z,93.70
2023-02-02T17:49:49.220Z,93.90
2023-02-02T17:52:17.152Z,94.00
2023-02-02T17:54:46.351Z,94.10
2023-02-02T17:57:15.371Z,94.10
2023-02-02T17:59:43.274Z,94.20
2023-02-02T18:02:13.901Z,94.20
2023-02-02T18:04:43.675Z,94.30
2023-02-02T18:07:13.351Z,94.20
2023-02-02T18:09:41.293Z,94.20
2023-02-02T18:12:10.604Z,94.20
2023-02-02T18:14:38.608Z,94.20
2023-02-02T18:17:08.190Z,94.30
2023-02-02T18:19:36.123Z,94.30
2023-02-02T18:22:04.026Z,94.40
2023-02-02T18:24:31.877Z,94.30
2023-02-02T18:26:59.781Z,94.20
2023-02-02T18:29:29.328Z,94.30
2023-02-02T18:31:58.612Z,94.30
2023-02-02T18:34:29.374Z,94.30
2023-02-02T18:36:57.342Z,94.30
2023-02-02T18:39:25.279Z,94.40
2023-02-02T18:41:53.175Z,94.40
2023-02-02T18:44:22.283Z,94.40
2023-02-02T18:46:52.146Z,94.40
2023-02-02T18:49:20.313Z,94.40
2023-02-02T18:51:48.898Z,94.30
2023-02-02T18:54:17.409Z,94.30
2023-02-02T18:56:45.341Z,94.30
2023-02-02T18:59:13.205Z,94.10
2023-02-02T19:01:41.265Z,93.90
2023-02-02T19:04:10.579Z,93.90
2023-02-02T19:06:56.138Z,93.70
2023-02-02T19:09:24.750Z,93.80
2023-02-02T19:11:54.818Z,93.70
2023-02-02T19:14:26.563Z,93.60
2023-02-02T19:16:57.215Z,93.50
2023-02-02T19:19:30.110Z,94.00
2023-02-02T19:21:59.430Z,93.80
2023-02-02T19:24:28.884Z,93.80
2023-02-02T19:26:57.135Z,93.90
2023-02-02T19:29:26.901Z,93.90
2023-02-02T19:32:00.563Z,94.00
2023-02-02T19:34:32.296Z,94.00
2023-02-02T19:37:02.271Z,94.10
2023-02-02T19:39:31.896Z,94.20
2023-02-02T19:42:00.947Z,94.30
2023-02-02T19:44:34.012Z,94.30
2023-02-02T19:47:02.755Z,94.30
2023-02-02T19:49:34.662Z,94.30
2023-02-02T19:52:04.828Z,94.40
2023-02-02T19:54:37.444Z,94.30
2023-02-02T19:57:16.521Z,94.60
2023-02-02T19:59:48.249Z,94.50
2023-02-02T20:02:39.710Z,94.40
2023-02-02T20:05:18.842Z,94.70
2023-02-02T20:07:46.882Z,94.50
2023-02-02T20:10:22.208Z,94.80
2023-02-02T20:12:50.936Z,94.50
2023-02-02T20:15:29.115Z,94.50
2023-02-02T20:17:59.169Z,94.40
2023-02-02T20:20:30.829Z,94.20
2023-02-02T20:22:58.960Z,94.30
2023-02-02T20:25:29.140Z,94.30
2023-02-02T20:27:58.897Z,94.20
2023-02-02T20:30:30.788Z,94.20
2023-02-02T20:33:01.528Z,94.10
2023-02-02T20:35:36.956Z,94.10
2023-02-02T20:38:17.071Z,94.20
2023-02-02T20:40:45.026Z,94.20
2023-02-02T20:43:14.860Z,94.20
2023-02-02T20:45:43.714Z,94.10
2023-02-02T20:48:12.380Z,94.10
2023-02-02T20:50:42.248Z,94.10
2023-02-02T20:53:10.657Z,94.10
2023-02-02T20:55:38.679Z,94.50
2023-02-02T20:58:07.304Z,94.10
2023-02-02T21:00:35.202Z,94.20
2023-02-02T21:03:03.447Z,94.20
2023-02-02T21:05:31.344Z,94.10
2023-02-02T21:08:00.571Z,94.20
2023-02-02T21:10:28.774Z,94.20
2023-02-02T21:12:56.914Z,94.20
2023-02-02T21:15:26.214Z,94.20
2023-02-02T21:17:54.154Z,94.20
2023-02-02T21:20:22.141Z,94.40
2023-02-02T21:22:50.106Z,94.00
2023-02-02T21:25:19.506Z,94.00
2023-02-02T21:27:47.423Z,94.10
2023-02-02T21:30:15.676Z,94.20
2023-02-02T21:32:44.119Z,94.20
2023-02-02T21:35:14.132Z,94.10
2023-02-02T21:37:44.099Z,94.00
2023-02-02T21:40:15.125Z,94.00
2023-02-02T21:42:48.800Z,93.90
2023-02-02T21:45:34.215Z,93.80
2023-02-02T21:48:02.700Z,93.80
2023-02-02T21:50:32.950Z,93.60
2023-02-02T21:53:19.967Z,93.70
2023-02-02T21:55:50.789Z,93.60
2023-02-02T21:58:23.057Z,93.70
2023-02-02T22:00:51.325Z,93.50
2023-02-02T22:03:33.121Z,93.70
2023-02-02T22:06:18.008Z,93.80
2023-02-02T22:08:45.954Z,93.80
2023-02-02T22:11:24.475Z,93.90
2023-02-02T22:13:55.508Z,94.00
2023-02-02T22:16:23.543Z,94.10
2023-02-02T22:18:51.449Z,94.20
2023-02-02T22:21:21.108Z,94.20
2023-02-02T22:23:49.156Z,94.20
2023-02-02T22:26:33.440Z,94.30
2023-02-02T22:29:08.123Z,94.10
2023-02-02T22:31:36.054Z,94.20
2023-02-02T22:34:03.981Z,94.20
2023-02-02T22:36:31.838Z,94.10
2023-02-02T22:38:59.692Z,94.10
2023-02-02T22:41:27.730Z,94.00
2023-02-02T22:43:55.654Z,93.90
2023-02-02T22:46:25.027Z,93.70
2023-02-02T22:48:52.947Z,93.60
2023-02-02T22:51:20.997Z,93.50
2023-02-02T22:53:48.879Z,93.40
2023-02-02T22:56:17.063Z,93.40
2023-02-02T22:58:44.924Z,93.50
2023-02-02T23:01:13.640Z,93.40
2023-02-02T23:03:42.851Z,93.40
2023-02-02T23:06:10.991Z,93.40
2023-02-02T23:08:38.879Z,93.40
2023-02-02T23:11:06.848Z,93.40
2023-02-02T23:13:34.726Z,93.50
2023-02-02T23:16:02.615Z,93.50
2023-02-02T23:18:30.522Z,93.60
2023-02-02T23:20:59.740Z,93.60
2023-02-02T23:23:27.616Z,93.60
2023-02-02T23:25:55.546Z,93.70
2023-02-02T23:28:23.491Z,93.80
2023-02-02T23:30:54.514Z,93.90
2023-02-02T23:33:22.478Z,94.00
2023-02-02T23:35:50.341Z,93.90
2023-02-02T23:38:19.584Z,93.90
2023-02-02T23:40:47.469Z,93.90
2023-02-02T23:43:15.350Z,93.90
